地図

経路データ

SID SEASON NUMBER BASIN SUBBASIN NAME ISO_TIME NATURE LAT LON WMO_WIND WMO_PRES WMO_AGENCY TRACK_TYPE DIST2LAND LANDFALL IFLAG USA_AGENCY USA_ATCF_ID USA_LAT USA_LON USA_RECORD USA_STATUS USA_WIND USA_PRES USA_SSHS USA_R34_NE USA_R34_SE USA_R34_SW USA_R34_NW USA_R50_NE USA_R50_SE USA_R50_SW USA_R50_NW USA_R64_NE USA_R64_SE USA_R64_SW USA_R64_NW USA_POCI USA_ROCI USA_RMW USA_EYE TOKYO_LAT TOKYO_LON TOKYO_GRADE TOKYO_WIND TOKYO_PRES TOKYO_R50_DIR TOKYO_R50_LONG TOKYO_R50_SHORT TOKYO_R30_DIR TOKYO_R30_LONG TOKYO_R30_SHORT TOKYO_LAND CMA_LAT CMA_LON CMA_CAT CMA_WIND CMA_PRES HKO_LAT HKO_LON HKO_CAT HKO_WIND HKO_PRES NEWDELHI_LAT NEWDELHI_LON NEWDELHI_GRADE NEWDELHI_WIND NEWDELHI_PRES NEWDELHI_CI NEWDELHI_DP NEWDELHI_POCI REUNION_LAT REUNION_LON REUNION_TYPE REUNION_WIND REUNION_PRES REUNION_TNUM REUNION_CI REUNION_RMW REUNION_R34_NE REUNION_R34_SE REUNION_R34_SW REUNION_R34_NW REUNION_R50_NE REUNION_R50_SE REUNION_R50_SW REUNION_R50_NW REUNION_R64_NE REUNION_R64_SE REUNION_R64_SW REUNION_R64_NW BOM_LAT BOM_LON BOM_TYPE BOM_WIND BOM_PRES BOM_TNUM BOM_CI BOM_RMW BOM_R34_NE BOM_R34_SE BOM_R34_SW BOM_R34_NW BOM_R50_NE BOM_R50_SE BOM_R50_SW BOM_R50_NW BOM_R64_NE BOM_R64_SE BOM_R64_SW BOM_R64_NW BOM_ROCI BOM_POCI BOM_EYE BOM_POS_METHOD BOM_PRES_METHOD NADI_LAT NADI_LON NADI_CAT NADI_WIND NADI_PRES WELLINGTON_LAT WELLINGTON_LON WELLINGTON_WIND WELLINGTON_PRES DS824_LAT DS824_LON DS824_STAGE DS824_WIND DS824_PRES TD9636_LAT TD9636_LON TD9636_STAGE TD9636_WIND TD9636_PRES TD9635_LAT TD9635_LON TD9635_WIND TD9635_PRES TD9635_ROCI NEUMANN_LAT NEUMANN_LON NEUMANN_CLASS NEUMANN_WIND NEUMANN_PRES MLC_LAT MLC_LON MLC_CLASS MLC_WIND MLC_PRES USA_GUST BOM_GUST BOM_GUST_PER REUNION_GUST REUNION_GUST_PER USA_SEAHGT USA_SEARAD_NE USA_SEARAD_SE USA_SEARAD_SW USA_SEARAD_NW STORM_SPEED STORM_DIR
1862011S21051 1862 4 SI MM NOT_NAMED 1862-01-11 06:00:00 NR -20.8500 51.4000 reunion main 288 288 _____O____O___ -1 -20.6000 51.5000 99 9.90000 -21.1000 51.3000 7 2 207
1862011S21051 1862 4 SI MM NOT_NAMED 1862-01-11 09:00:00 NR -20.9203 51.3492 main 279 279 _____P____P___ -1 -20.6469 51.4655 99 -21.1938 51.2328 7 2 214
1862011S21051 1862 4 SI MM NOT_NAMED 1862-01-11 12:00:00 NR -20.9926 51.2960 main 283 278 _____P____P___ -1 -20.6952 51.4295 99 -21.2900 51.1625 7 2 215
1862011S21051 1862 4 SI MM NOT_NAMED 1862-01-11 15:00:00 NR -21.0689 51.2382 main 278 278 _____P____P___ -1 -20.7465 51.3905 99 -21.3912 51.0859 7 2 215
1862011S21051 1862 4 SI MM NOT_NAMED 1862-01-11 18:00:00 NR -21.1512 51.1736 main 283 273 _____P____O___ -1 -20.8024 51.3472 99 -21.5000 51.0000 7 2 217
1862011S21051 1862 4 SI MM NOT_NAMED 1862-01-11 21:00:00 NR -21.2410 51.1005 main 273 268 _____P____P___ -1 -20.8641 51.2979 99 -21.6178 50.9031 7 2 217
1862011S21051 1862 4 SI MM NOT_NAMED 1862-01-12 00:00:00 NR -21.3379 51.0207 main 268 262 _____P____P___ -1 -20.9333 51.2413 99 -21.7425 50.8000 7 3 218
1862011S21051 1862 4 SI MM NOT_NAMED 1862-01-12 03:00:00 NR -21.4412 50.9364 main 262 262 _____P____P___ -1 -21.0115 51.1758 99 -21.8710 50.6969 7 3 217
1862011S21051 1862 4 SI MM NOT_NAMED 1862-01-12 06:00:00 NR -21.5500 50.8500 reunion main 264 254 _____O____O___ -1 -21.1000 51.1000 99 9.90000 -22.0000 50.6000 7 3 217
1862011S21051 1862 4 SI MM NOT_NAMED 1862-01-12 09:00:00 NR -21.6604 50.7634 main 260 250 _____P____P___ -1 -21.1999 51.0130 99 -22.1209 50.5137 7 3 216
1862011S21051 1862 4 SI MM NOT_NAMED 1862-01-12 12:00:00 NR -21.7763 50.6759 main 252 241 _____P____P___ -1 -21.3102 50.9169 99 -22.2425 50.4349 7 3 214
1862011S21051 1862 4 SI MM NOT_NAMED 1862-01-12 15:00:00 NR -21.8985 50.5890 main 244 236 _____P____P___ -1 -21.4291 50.8142 99 -22.3678 50.3637 7 3 212
1862011S21051 1862 4 SI MM NOT_NAMED 1862-01-12 18:00:00 NR -22.0276 50.5040 main 236 229 _____P____O___ -1 -21.5552 50.7079 99 -22.5000 50.3000 7 3 211
1862011S21051 1862 4 SI MM NOT_NAMED 1862-01-12 21:00:00 NR -22.1547 50.4236 main 231 231 _____P____P___ -1 -21.6869 50.6006 99 -22.6225 50.2467 7 3 209
1862011S21051 1862 4 SI MM NOT_NAMED 1862-01-13 00:00:00 NR -22.2888 50.3474 main 223 223 _____P____P___ -1 -21.8227 50.4950 99 -22.7550 50.1998 7 3 206
1862011S21051 1862 4 SI MM NOT_NAMED 1862-01-13 03:00:00 NR -22.4354 50.2734 main 226 220 _____P____P___ -1 -21.9609 50.3938 99 -22.9100 50.1529 7 3 204
1862011S21051 1862 4 SI MM NOT_NAMED 1862-01-13 06:00:00 NR -22.6000 50.2000 reunion main 224 219 _____O____O___ -1 -22.1000 50.3000 99 9.90000 -23.1000 50.1000 7 4 203
1862011S21051 1862 4 SI MM NOT_NAMED 1862-01-13 09:00:00 NR -22.7734 50.1169 main 224 219 _____P____P___ -1 -22.2118 50.2176 99 -23.3350 50.0162 7 4 203
1862011S21051 1862 4 SI MM NOT_NAMED 1862-01-13 12:00:00 NR -22.9641 50.0344 main 222 222 _____P____P___ -1 -22.3231 50.1409 99 -23.6051 49.9280 7 4 200
1862011S21051 1862 4 SI MM NOT_NAMED 1862-01-13 15:00:00 NR -23.1677 49.9603 main 227 217 _____P____P___ -1 -22.4378 50.0699 99 -23.8975 49.8507 7 4 196
1862011S21051 1862 4 SI MM NOT_NAMED 1862-01-13 18:00:00 NR -23.3800 49.9023 main 221 221 _____P____O___ -1 -22.5600 50.0046 99 -24.2000 49.8000 7 4 191
1862011S21051 1862 4 SI MM NOT_NAMED 1862-01-13 21:00:00 NR -23.5977 49.8662 main 225 225 _____P____P___ -1 -22.6933 49.9450 99 -24.5022 49.7874 7 3 186
1862011S21051 1862 4 SI MM NOT_NAMED 1862-01-14 00:00:00 NR -23.6821 49.8550 main 226 216 _____P____P___ -1 -22.8419 49.8910 99 -24.8025 49.8069 7 1 193
1862011S21051 1862 4 SI MM NOT_NAMED 1862-01-14 03:00:00 NR -23.7068 49.8445 main 216 215 _____P____P___ -1 -23.0095 49.8427 99 -25.1016 49.8480 7 1 319
1862011S21051 1862 4 SI MM NOT_NAMED 1862-01-14 06:00:00 NR -23.6400 49.8200 reunion main 215 214 _____O____O___ -1 -23.2000 49.8000 99 9.90000 -25.4000 49.9000 7 3 343
1862011S21051 1862 4 SI MM NOT_NAMED 1862-01-14 09:00:00 NR -23.4506 49.7535 main 214 204 _____P________ -1 -23.4506 49.7535 99 7 1 228
1862011S21051 1862 4 SI MM NOT_NAMED 1862-01-14 12:00:00 NR -23.7277 49.7124 main 206 206 _____P________ -1 -23.7277 49.7124 99 7 6 187
1862011S21051 1862 4 SI MM NOT_NAMED 1862-01-14 15:00:00 NR -24.0216 49.6771 main 214 214 _____P________ -1 -24.0216 49.6771 99 7 6 185
1862011S21051 1862 4 SI MM NOT_NAMED 1862-01-14 18:00:00 NR -24.3225 49.6478 main 215 215 _____P________ -1 -24.3225 49.6478 99 6 184
1862011S21051 1862 4 SI MM NOT_NAMED 1862-01-14 21:00:00 NR -24.6205 49.6251 main 223 223 _____P________ -1 -24.6205 49.6251 99 6 183
1862011S21051 1862 4 SI MM NOT_NAMED 1862-01-15 00:00:00 NR -24.9059 49.6093 main 235 235 _____P________ -1 -24.9059 49.6093 99 6 0
1862011S21051 1862 4 SI MM NOT_NAMED 1862-01-15 03:00:00 NR -25.1690 49.6008 main 244 244 _____P________ -1 -25.1690 49.6008 99 5 181
1862011S21051 1862 4 SI MM NOT_NAMED 1862-01-15 06:00:00 NR -25.4000 49.6000 reunion main 252 252 _____O________ -1 -25.4000 49.6000 99 9.90000 4 0
1862011S21051 1862 4 SI MM NOT_NAMED 1862-01-15 09:00:00 NR -25.5916 49.6071 main 259 259 _____P________ -1 -25.5916 49.6071 99 3 176
1862011S21051 1862 4 SI MM NOT_NAMED 1862-01-15 12:00:00 NR -25.7465 49.6213 main 262 262 _____P________ -1 -25.7465 49.6213 99 3 170
1862011S21051 1862 4 SI MM NOT_NAMED 1862-01-15 15:00:00 NR -25.8701 49.6417 main 270 270 _____P________ -1 -25.8701 49.6417 99 2 171
1862011S21051 1862 4 SI MM NOT_NAMED 1862-01-15 18:00:00 NR -25.9675 49.6672 main 283 283 _____P________ -1 -25.9675 49.6672 99 2 163
1862011S21051 1862 4 SI MM NOT_NAMED 1862-01-15 21:00:00 NR -26.0439 49.6968 main 283 283 _____P________ -1 -26.0439 49.6968 99 1 158
1862011S21051 1862 4 SI MM NOT_NAMED 1862-01-16 00:00:00 NR -26.1047 49.7295 main 288 288 _____P________ -1 -26.1047 49.7295 99 1 153
1862011S21051 1862 4 SI MM NOT_NAMED 1862-01-16 03:00:00 NR -26.1550 49.7642 main 301 301 _____P________ -1 -26.1550 49.7642 99 1 143
1862011S21051 1862 4 SI MM NOT_NAMED 1862-01-16 06:00:00 NR -26.2000 49.8000 reunion main 301 _____O________ -1 -26.2000 49.8000 99 9.90000 1 144

IBTrACS Databaseについて

本データベースは、米国NOAAが公開する1842年以降の世界の熱帯低気圧のベストトラックデータアーカイブInternational Best Track Archive for Climate Stewardship (IBTrACS)を、ウェブで閲覧しやすい形式に変換したものです。

最終更新日:2021-12-03